Time;durP1;ratioP1;P1;durP2;ratioP2;P2;SDS_P1;SDS_P2;PMS_P1;PMS_P2;Temp;Humidity;BMP_temperature;BMP_pressure;BME280_temperature;BME280_humidity;BME280_pressure;Samples;Min_cycle;Max_cycle;Signal;HPM_P1;HPM_P2
2022/04/05 00:00:17;;;;;;;12.70;9.27;;;;;;;0.66;100.00;92622.91;2097258;28;20116;-83
2022/04/05 00:01:18;;;;;;;17.15;9.10;;;;;;;0.71;100.00;92628.59;2098021;28;20415;-83
2022/04/05 00:02:19;;;;;;;15.52;9.40;;;;;;;0.57;100.00;92620.63;2089469;28;20056;-83
2022/04/05 00:03:20;;;;;;;14.32;9.95;;;;;;;0.49;100.00;92621.69;2089712;28;20028;-86
2022/04/05 00:04:21;;;;;;;16.02;10.15;;;;;;;0.40;100.00;92624.63;2096883;28;20055;-84
2022/04/05 00:05:22;;;;;;;14.25;9.75;;;;;;;0.53;100.00;92619.84;2089451;28;20056;-84
2022/04/05 00:06:23;;;;;;;13.65;9.82;;;;;;;0.50;100.00;92618.69;2088024;28;20023;-83
2022/04/05 00:07:24;;;;;;;13.45;9.90;;;;;;;0.63;100.00;92618.41;2096705;28;20453;-83
2022/04/05 00:08:25;;;;;;;13.43;8.93;;;;;;;0.88;100.00;92626.44;2088780;28;20021;-83
2022/04/05 00:09:26;;;;;;;16.25;10.15;;;;;;;0.86;100.00;92628.69;2085795;28;20076;-84
2022/04/05 00:10:28;;;;;;;13.75;9.98;;;;;;;0.86;100.00;92626.06;2087611;28;20040;-83
2022/04/05 00:11:29;;;;;;;12.32;9.80;;;;;;;0.74;100.00;92625.22;2087763;28;20062;-83
2022/04/05 00:12:30;;;;;;;11.60;9.15;;;;;;;0.82;100.00;92620.78;2080399;28;20096;-83
2022/04/05 00:13:31;;;;;;;17.17;10.38;;;;;;;0.69;100.00;92624.81;2087621;28;20025;-84
2022/04/05 00:14:33;;;;;;;14.40;9.13;;;;;;;0.55;100.00;92620.22;2084440;28;20054;-84
2022/04/05 00:15:35;;;;;;;12.55;9.63;;;;;;;0.79;100.00;92616.28;2097772;28;20032;-83
2022/04/05 00:16:36;;;;;;;12.45;9.05;;;;;;;0.74;100.00;92627.84;2094802;28;20476;-83
2022/04/05 00:17:38;;;;;;;15.38;10.65;;;;;;;0.61;100.00;92618.00;2102254;28;20460;-85
2022/04/05 00:18:39;;;;;;;12.90;10.30;;;;;;;0.49;100.00;92624.31;2100301;28;20028;-84
2022/04/05 00:20:14;;;;;;;15.40;9.75;;;;;;;0.39;100.00;92624.97;2086870;28;20017;-85
2022/04/05 00:21:15;;;;;;;14.23;10.10;;;;;;;0.40;100.00;92610.72;2095079;28;20039;-85
2022/04/05 00:22:16;;;;;;;15.10;9.88;;;;;;;0.59;100.00;92618.38;2102321;28;20035;-83
2022/04/05 00:23:19;;;;;;;13.05;9.50;;;;;;;0.47;100.00;92613.38;2093957;28;20021;-83
2022/04/05 00:24:21;;;;;;;11.65;9.40;;;;;;;0.80;100.00;92615.16;2093935;28;20469;-83
2022/04/05 00:25:22;;;;;;;15.10;10.00;;;;;;;0.90;100.00;92617.06;2103207;28;20488;-83
2022/04/05 00:26:23;;;;;;;15.00;10.60;;;;;;;0.71;100.00;92612.06;2103766;28;20139;-84
2022/04/05 00:27:24;;;;;;;17.30;9.93;;;;;;;0.57;100.00;92604.84;2096231;28;20028;-83
2022/04/05 00:28:25;;;;;;;16.65;10.20;;;;;;;0.64;100.00;92604.88;2089150;28;20033;-83
2022/04/05 00:29:26;;;;;;;17.90;10.40;;;;;;;0.48;100.00;92612.25;2094066;28;20204;-84
2022/04/05 00:30:27;;;;;;;17.15;10.63;;;;;;;0.42;100.00;92609.22;2100664;28;20020;-84
2022/04/05 00:31:44;;;;;;;14.10;10.98;;;;;;;0.65;100.00;92606.38;2085739;28;20024;-84
2022/04/05 00:32:45;;;;;;;14.75;9.30;;;;;;;0.58;100.00;92613.47;2100232;28;20128;-84
2022/04/05 00:33:46;;;;;;;12.05;9.63;;;;;;;0.69;100.00;92601.91;2096197;28;20473;-84
2022/04/05 00:34:47;;;;;;;19.33;10.65;;;;;;;0.78;100.00;92601.59;2089421;28;20036;-84
2022/04/05 00:35:48;;;;;;;16.20;10.18;;;;;;;0.69;100.00;92596.66;2078773;28;20081;-83
2022/04/05 00:36:49;;;;;;;16.67;10.45;;;;;;;1.07;100.00;92605.16;2082891;28;20018;-84
2022/04/05 00:37:50;;;;;;;15.05;10.18;;;;;;;1.20;100.00;92597.69;2089535;28;20033;-83
2022/04/05 00:38:51;;;;;;;12.95;10.02;;;;;;;1.09;100.00;92607.41;2093067;28;20025;-83
2022/04/05 00:39:52;;;;;;;15.07;10.07;;;;;;;1.03;100.00;92604.38;2083111;28;20028;-83
2022/04/05 00:40:54;;;;;;;11.85;10.00;;;;;;;0.97;100.00;92601.34;2079948;28;20816;-85
2022/04/05 00:41:56;;;;;;;15.77;10.05;;;;;;;0.99;100.00;92593.06;2089322;28;20381;-83
2022/04/05 00:42:58;;;;;;;12.85;9.50;;;;;;;0.90;100.00;92593.41;2097620;28;20027;-83
2022/04/05 00:43:59;;;;;;;13.02;9.65;;;;;;;0.92;100.00;92593.81;2089372;28;20105;-83
2022/04/05 00:45:05;;;;;;;15.38;9.38;;;;;;;1.06;100.00;92587.09;2082527;28;20021;-82
2022/04/05 00:46:08;;;;;;;14.00;10.35;;;;;;;0.78;100.00;92593.69;2088402;28;20111;-84
2022/04/05 00:47:21;;;;;;;14.32;10.68;;;;;;;0.92;100.00;92604.31;2089638;28;20103;-83
2022/04/05 00:48:29;;;;;;;13.68;10.43;;;;;;;0.85;100.00;92599.00;2088165;28;20017;-85
2022/04/05 00:49:31;;;;;;;13.10;10.02;;;;;;;0.71;100.00;92591.78;2083097;28;20048;-84
2022/04/05 00:50:36;;;;;;;15.50;10.30;;;;;;;0.69;100.00;92595.88;2097348;28;20024;-83
2022/04/05 00:51:37;;;;;;;15.98;10.25;;;;;;;0.73;100.00;92594.03;2089783;28;20025;-83
2022/04/05 00:52:44;;;;;;;17.42;10.88;;;;;;;0.69;100.00;92596.66;2094455;28;20050;-83
2022/04/05 00:53:53;;;;;;;13.50;10.23;;;;;;;0.72;100.00;92585.41;2101780;28;20137;-85
2022/04/05 00:54:58;;;;;;;14.50;10.23;;;;;;;0.85;100.00;92588.50;2093684;28;20470;-83
2022/04/05 00:56:01;;;;;;;16.05;9.90;;;;;;;1.03;100.00;92587.84;2085255;28;20032;-82
2022/04/05 00:57:06;;;;;;;17.35;9.95;;;;;;;0.78;100.00;92587.69;2087221;28;20086;-82
2022/04/05 00:58:09;;;;;;;18.65;10.48;;;;;;;0.62;100.00;92580.09;2094612;28;20052;-82
2022/04/05 00:59:13;;;;;;;13.00;10.35;;;;;;;0.55;100.00;92574.75;2095482;28;20021;-83
2022/04/05 01:00:14;;;;;;;17.70;10.32;;;;;;;0.50;100.00;92591.63;2092124;28;20024;-85
2022/04/05 01:01:18;;;;;;;14.93;11.02;;;;;;;0.66;100.00;92586.09;2086430;28;20036;-84
2022/04/05 01:02:20;;;;;;;12.50;10.30;;;;;;;0.74;100.00;92583.16;2081701;28;20096;-82
2022/04/05 01:03:22;;;;;;;13.77;9.55;;;;;;;1.03;100.00;92580.69;2078759;28;20020;-83
2022/04/05 01:04:24;;;;;;;14.93;11.05;;;;;;;0.75;100.00;92583.94;2079210;28;20022;-84
2022/04/05 01:05:26;;;;;;;14.23;10.05;;;;;;;0.60;100.00;92585.69;2087229;28;20035;-83
2022/04/05 01:06:30;;;;;;;14.57;10.95;;;;;;;0.58;100.00;92574.78;2087842;28;20107;-83
2022/04/05 01:07:34;;;;;;;16.23;10.82;;;;;;;0.84;100.00;92576.47;2094560;28;20160;-84
2022/04/05 01:08:36;;;;;;;11.38;9.77;;;;;;;0.80;100.00;92580.19;2107493;28;20468;-84
2022/04/05 01:09:40;;;;;;;15.50;10.20;;;;;;;0.87;100.00;92570.44;2097074;28;20025;-83
2022/04/05 01:10:48;;;;;;;14.55;10.60;;;;;;;0.85;100.00;92577.22;2097774;28;20054;-82
2022/04/05 01:11:55;;;;;;;17.58;10.45;;;;;;;0.79;100.00;92586.56;2091840;28;20020;-85
2022/04/05 01:13:04;;;;;;;15.05;9.90;;;;;;;0.94;100.00;92585.53;2089170;28;20517;-84
2022/04/05 01:14:06;;;;;;;15.15;10.25;;;;;;;0.94;100.00;92569.75;2097211;28;20450;-84
2022/04/05 01:15:07;;;;;;;14.90;10.20;;;;;;;0.95;100.00;92577.25;2084922;28;20087;-83
2022/04/05 01:16:11;;;;;;;14.73;10.63;;;;;;;0.95;100.00;92571.25;2084643;28;20035;-84
2022/04/05 01:17:13;;;;;;;15.07;10.32;;;;;;;0.97;100.00;92585.56;2090619;28;20021;-84
2022/04/05 01:18:14;;;;;;;15.23;10.20;;;;;;;0.93;100.00;92582.16;2080392;28;20768;-83
2022/04/05 01:19:15;;;;;;;15.80;10.18;;;;;;;0.95;100.00;92577.25;2079872;28;20029;-84
2022/04/05 01:20:16;;;;;;;15.25;9.82;;;;;;;1.09;100.00;92583.72;2089221;28;20033;-83
2022/04/05 01:21:18;;;;;;;23.70;11.02;;;;;;;0.97;100.00;92582.94;2095862;28;20550;-84
2022/04/05 01:22:19;;;;;;;16.92;10.98;;;;;;;0.83;100.00;92580.19;2088432;28;20447;-82
2022/04/05 01:23:22;;;;;;;14.80;10.82;;;;;;;0.78;100.00;92577.16;2084994;28;20020;-84
2022/04/05 01:24:23;;;;;;;15.18;10.63;;;;;;;0.74;100.00;92577.88;2088634;28;20469;-83
2022/04/05 01:25:24;;;;;;;14.18;10.43;;;;;;;0.73;100.00;92580.91;2080937;28;20064;-84
2022/04/05 01:26:25;;;;;;;17.13;11.23;;;;;;;0.70;100.00;92569.25;2080871;28;20493;-84
2022/04/05 01:27:27;;;;;;;17.58;11.10;;;;;;;0.83;100.00;92580.19;2088869;28;20095;-83
2022/04/05 01:28:28;;;;;;;14.07;10.35;;;;;;;0.80;100.00;92582.81;2089019;28;20021;-82
2022/04/05 01:29:29;;;;;;;14.95;11.02;;;;;;;0.95;100.00;92565.97;2088978;28;20620;-84
2022/04/05 01:30:31;;;;;;;17.10;10.65;;;;;;;1.11;100.00;92578.84;2088888;28;20036;-84
2022/04/05 01:31:46;;;;;;;19.67;10.95;;;;;;;0.96;100.00;92576.13;2085245;28;20016;-85
2022/04/05 01:32:48;;;;;;;14.27;10.35;;;;;;;0.83;100.00;92569.66;2089362;28;20432;-84
2022/04/05 01:33:51;;;;;;;19.08;11.20;;;;;;;0.86;100.00;92578.72;2080558;28;20021;-85
2022/04/05 01:34:52;;;;;;;17.70;10.90;;;;;;;0.80;100.00;92578.31;2081168;28;20061;-85
2022/04/05 01:35:53;;;;;;;17.05;10.50;;;;;;;0.79;100.00;92565.50;2085628;28;20017;-83
2022/04/05 01:36:59;;;;;;;14.13;10.48;;;;;;;0.74;100.00;92567.38;2088474;28;20032;-84
2022/04/05 01:38:02;;;;;;;14.20;11.15;;;;;;;0.87;100.00;92573.06;2088756;28;20139;-83
2022/04/05 01:39:03;;;;;;;15.82;10.93;;;;;;;0.79;100.00;92568.91;2089116;28;20023;-83
2022/04/05 01:40:05;;;;;;;15.15;11.30;;;;;;;0.78;100.00;92571.91;2080660;28;20092;-83
2022/04/05 01:41:06;;;;;;;20.15;12.18;;;;;;;0.94;100.00;92575.00;2079561;28;20018;-84
2022/04/05 01:42:12;;;;;;;15.68;10.88;;;;;;;0.96;100.00;92564.84;2078751;28;21541;-83
2022/04/05 01:43:13;;;;;;;14.07;9.82;;;;;;;1.08;100.00;92566.44;2087407;28;20051;-83
2022/04/05 01:44:14;;;;;;;14.98;10.75;;;;;;;0.95;100.00;92558.84;2080763;28;20600;-84
2022/04/05 01:45:16;;;;;;;13.30;10.43;;;;;;;1.22;100.00;92561.22;2088969;28;20021;-83
2022/04/05 01:46:18;;;;;;;15.00;9.82;;;;;;;1.48;95.83;92554.91;2094725;28;20029;-84
2022/04/05 01:47:19;;;;;;;17.20;10.70;;;;;;;1.44;96.69;92554.91;2096487;28;20077;-83
2022/04/05 01:48:20;;;;;;;16.88;10.75;;;;;;;1.35;97.75;92559.00;2096669;28;20020;-84
2022/04/05 01:49:22;;;;;;;16.20;10.55;;;;;;;1.36;99.12;92552.63;2088895;28;20025;-83
2022/04/05 01:50:24;;;;;;;18.13;10.55;;;;;;;1.27;100.00;92545.06;2080823;28;20021;-84
2022/04/05 01:51:25;;;;;;;13.93;10.80;;;;;;;0.97;100.00;92559.25;2084663;28;20064;-84
2022/04/05 01:52:26;;;;;;;17.50;11.00;;;;;;;0.88;100.00;92553.56;2081960;28;20432;-84
2022/04/05 01:53:29;;;;;;;16.33;10.18;;;;;;;0.82;100.00;92562.91;2083495;28;20534;-83
2022/04/05 01:54:37;;;;;;;14.00;10.95;;;;;;;0.90;100.00;92558.44;2088734;28;20025;-83
2022/04/05 01:55:38;;;;;;;13.93;11.25;;;;;;;0.91;100.00;92547.53;2090923;28;20017;-84
2022/04/05 01:56:52;;;;;;;14.95;10.27;;;;;;;0.79;100.00;92547.09;2096957;28;20013;-83
2022/04/05 01:57:53;;;;;;;15.02;10.40;;;;;;;0.77;100.00;92538.84;2097482;28;20024;-84
2022/04/05 01:58:55;;;;;;;16.83;9.88;;;;;;;0.90;100.00;92550.56;2085844;28;20044;-83
2022/04/05 01:59:56;;;;;;;13.57;10.05;;;;;;;1.06;100.00;92550.25;2088273;28;20025;-85
2022/04/05 02:01:00;;;;;;;15.93;10.95;;;;;;;0.96;100.00;92547.19;2088707;28;20016;-84
2022/04/05 02:02:05;;;;;;;12.25;9.93;;;;;;;0.97;100.00;92551.34;2094665;28;20472;-86
2022/04/05 02:03:07;;;;;;;14.88;10.90;;;;;;;0.99;100.00;92546.47;2084052;28;20028;-82
2022/04/05 02:04:12;;;;;;;14.20;11.15;;;;;;;0.85;100.00;92546.41;2080389;28;20099;-84
2022/04/05 02:05:13;;;;;;;17.65;10.93;;;;;;;0.87;100.00;92552.03;2079323;28;20041;-84
2022/04/05 02:06:16;;;;;;;13.55;10.20;;;;;;;1.09;100.00;92554.78;2087623;28;20031;-84
2022/04/05 02:07:18;;;;;;;16.65;10.07;;;;;;;1.14;100.00;92546.53;2095492;28;20393;-82
2022/04/05 02:08:21;;;;;;;15.25;10.68;;;;;;;0.95;100.00;92550.19;2089099;28;20469;-84
2022/04/05 02:09:22;;;;;;;14.13;10.60;;;;;;;1.04;100.00;92555.13;2088934;28;20019;-84
2022/04/05 02:12:28;;;;;;;;;;;;;;;0.96;100.00;92557.72;2136647;27;20121;-81
2022/04/05 02:13:29;;;;;;;16.55;10.13;;;;;;;0.81;100.00;92550.13;2113114;28;20279;-81
2022/04/05 02:14:34;;;;;;;14.93;9.93;;;;;;;0.85;100.00;92554.28;2103621;28;20024;-83
2022/04/05 02:15:37;;;;;;;16.38;10.30;;;;;;;0.81;100.00;92550.88;2094607;28;20028;-82
2022/04/05 02:16:41;;;;;;;15.98;10.27;;;;;;;0.73;100.00;92557.97;2104964;28;20056;-81
2022/04/05 02:17:43;;;;;;;15.10;11.05;;;;;;;0.83;100.00;92561.03;2100186;28;20537;-82
2022/04/05 02:18:44;;;;;;;15.35;10.25;;;;;;;1.57;94.85;92554.56;2102790;27;20495;-84
2022/04/05 02:19:46;;;;;;;14.20;10.30;;;;;;;1.28;99.00;92559.75;2115430;28;20653;-82
2022/04/05 02:20:49;;;;;;;12.30;10.30;;;;;;;1.29;97.52;92555.25;2104697;28;20052;-80
2022/04/05 02:21:50;;;;;;;18.52;10.68;;;;;;;1.09;100.00;92550.25;2096332;28;20024;-82
2022/04/05 02:22:51;;;;;;;15.45;11.20;;;;;;;0.93;100.00;92555.09;2107356;28;20172;-81
2022/04/05 02:23:52;;;;;;;15.65;10.77;;;;;;;1.02;100.00;92555.50;2109658;28;20110;-81
2022/04/05 02:24:54;;;;;;;15.40;10.30;;;;;;;0.99;100.00;92556.97;2104201;28;20016;-82
2022/04/05 02:25:55;;;;;;;18.23;10.75;;;;;;;1.29;98.08;92545.47;2097578;28;20517;-82
2022/04/05 02:26:56;;;;;;;14.88;10.90;;;;;;;1.24;99.74;92553.72;2106040;28;20081;-81
2022/04/05 02:27:57;;;;;;;16.05;10.55;;;;;;;1.02;100.00;92552.13;2102369;28;20013;-82
2022/04/05 02:28:58;;;;;;;14.93;10.20;;;;;;;0.96;100.00;92549.81;2110863;27;20020;-81
2022/04/05 02:29:59;;;;;;;12.98;10.18;;;;;;;0.98;100.00;92546.84;2116565;27;20034;-82
2022/04/05 02:31:00;;;;;;;15.40;10.63;;;;;;;0.95;100.00;92548.31;2117433;28;20142;-83
2022/04/05 02:32:02;;;;;;;14.20;10.70;;;;;;;0.89;100.00;92544.53;2117190;28;20023;-82
2022/04/05 02:33:03;;;;;;;13.55;9.38;;;;;;;1.15;98.55;92546.16;2111079;28;20073;-81
2022/04/05 02:34:04;;;;;;;14.93;10.82;;;;;;;1.03;99.96;92545.72;2096349;28;20120;-82
2022/04/05 02:35:19;;;;;;;16.63;10.98;;;;;;;0.98;100.00;92546.84;2104513;28;20024;-81
2022/04/05 02:36:20;;;;;;;19.50;10.60;;;;;;;0.95;100.00;92542.31;2095647;28;20052;-82
2022/04/05 02:37:21;;;;;;;14.32;10.43;;;;;;;0.88;100.00;92545.66;2104694;28;20035;-82
2022/04/05 02:38:22;;;;;;;13.43;9.88;;;;;;;0.79;100.00;92537.34;2104560;28;20057;-82
2022/04/05 02:39:23;;;;;;;14.35;10.77;;;;;;;0.75;100.00;92560.25;2096307;28;20021;-82
2022/04/05 02:40:25;;;;;;;16.02;10.60;;;;;;;0.70;100.00;92556.09;2104576;28;20032;-82
2022/04/05 02:41:27;;;;;;;12.82;10.00;;;;;;;0.78;100.00;92556.13;2113060;28;20024;-82
2022/04/05 02:42:28;;;;;;;14.55;10.68;;;;;;;0.84;100.00;92544.91;2113074;28;20582;-82
2022/04/05 02:43:29;;;;;;;13.38;10.57;;;;;;;0.95;100.00;92550.94;2112918;28;20692;-82
2022/04/05 02:44:30;;;;;;;15.32;10.27;;;;;;;1.29;96.58;92552.59;2104507;28;20055;-82
2022/04/05 02:45:31;;;;;;;15.20;10.82;;;;;;;1.16;99.97;92544.28;2096310;28;20107;-80
2022/04/05 02:46:33;;;;;;;13.15;10.23;;;;;;;0.95;100.00;92548.31;2102119;28;20461;-83
2022/04/05 02:47:34;;;;;;;15.68;10.65;;;;;;;0.93;100.00;92544.56;2099902;28;20485;-82
2022/04/05 02:48:35;;;;;;;12.98;9.85;;;;;;;0.99;100.00;92535.19;2103866;28;20071;-82
2022/04/05 02:49:36;;;;;;;17.60;11.20;;;;;;;0.84;100.00;92544.16;2096272;28;20028;-82
2022/04/05 02:50:37;;;;;;;18.80;10.15;;;;;;;0.74;100.00;92545.56;2095958;28;20512;-82
2022/04/05 02:51:39;;;;;;;14.85;11.63;;;;;;;0.95;100.00;92543.06;2102959;28;20028;-83
2022/04/05 02:52:40;;;;;;;12.60;9.65;;;;;;;1.03;100.00;92543.09;2104206;28;20799;-81
2022/04/05 02:53:42;;;;;;;13.40;9.40;;;;;;;1.08;100.00;92537.47;2104283;28;20067;-81
2022/04/05 02:54:44;;;;;;;12.57;9.50;;;;;;;1.10;100.00;92535.22;2113041;28;20054;-81
2022/04/05 02:55:46;;;;;;;15.05;10.13;;;;;;;1.08;100.00;92535.59;2104451;28;20039;-80
2022/04/05 02:56:48;;;;;;;13.70;9.57;;;;;;;0.94;100.00;92541.56;2088022;28;20075;-81
2022/04/05 02:57:50;;;;;;;14.95;9.80;;;;;;;0.92;100.00;92550.94;2096451;28;20071;-81
2022/04/05 02:58:53;;;;;;;13.05;9.95;;;;;;;0.91;100.00;92544.91;2104533;28;20016;-82
2022/04/05 02:59:56;;;;;;;14.50;10.38;;;;;;;0.97;100.00;92542.72;2109810;28;20030;-83
2022/04/05 03:00:57;;;;;;;12.10;9.15;;;;;;;1.28;99.53;92543.97;2104585;28;20408;-81
2022/04/05 03:02:00;;;;;;;14.55;10.05;;;;;;;1.27;100.00;92539.81;2096029;28;20036;-81
2022/04/05 03:03:01;;;;;;;13.85;9.23;;;;;;;1.17;99.94;92536.00;2096311;28;20025;-82
2022/04/05 03:04:02;;;;;;;13.77;9.82;;;;;;;1.25;98.05;92527.00;2091911;28;20049;-81
2022/04/05 03:05:06;;;;;;;16.17;10.48;;;;;;;1.06;100.00;92542.38;2096084;28;20028;-82
2022/04/05 03:06:07;;;;;;;14.32;9.57;;;;;;;1.28;98.16;92537.94;2093577;28;20029;-80
2022/04/05 03:07:08;;;;;;;12.07;9.60;;;;;;;1.09;100.00;92533.72;2091001;28;20028;-82
2022/04/05 03:08:10;;;;;;;19.27;10.70;;;;;;;1.30;97.74;92531.16;2109806;28;20032;-82
2022/04/05 03:09:12;;;;;;;12.55;9.90;;;;;;;1.22;99.28;92532.25;2107287;28;20128;-83
2022/04/05 03:10:13;;;;;;;14.07;9.70;;;;;;;1.23;99.71;92533.78;2087918;28;20032;-82
2022/04/05 03:11:14;;;;;;;12.07;9.27;;;;;;;1.21;98.91;92533.41;2091349;28;20112;-81
2022/04/05 03:12:15;;;;;;;13.23;9.10;;;;;;;1.31;97.95;92535.31;2095279;28;20032;-81
2022/04/05 03:13:16;;;;;;;10.63;9.38;;;;;;;1.14;100.00;92528.88;2099869;28;20039;-81
2022/04/05 03:14:17;;;;;;;13.05;9.70;;;;;;;1.07;100.00;92528.84;2108382;28;20028;-83
2022/04/05 03:15:19;;;;;;;13.27;9.82;;;;;;;1.25;97.06;92521.75;2095835;28;20481;-81
2022/04/05 03:16:20;;;;;;;14.30;10.02;;;;;;;1.14;98.65;92520.19;2112650;28;20862;-81
2022/04/05 03:17:22;;;;;;;11.80;9.57;;;;;;;1.07;98.11;92514.94;2114809;28;20109;-81
2022/04/05 03:18:23;;;;;;;14.15;10.20;;;;;;;1.02;99.55;92512.66;2096095;28;20416;-83
2022/04/05 03:19:24;;;;;;;14.70;9.73;;;;;;;1.02;100.00;92528.44;2087872;28;20029;-81
2022/04/05 03:20:25;;;;;;;15.35;10.20;;;;;;;1.09;100.00;92517.94;2090751;28;20021;-81
2022/04/05 03:21:26;;;;;;;13.48;10.40;;;;;;;0.92;100.00;92517.50;2087891;28;20021;-81
2022/04/05 03:22:27;;;;;;;11.65;9.50;;;;;;;1.28;96.23;92514.25;2087796;28;20024;-83
2022/04/05 03:23:28;;;;;;;15.52;10.30;;;;;;;1.08;98.52;92517.19;2100880;28;20048;-81
2022/04/05 03:24:29;;;;;;;13.13;9.57;;;;;;;1.00;100.00;92513.00;2106801;28;20080;-82
2022/04/05 03:25:30;;;;;;;18.45;9.60;;;;;;;0.95;100.00;92510.72;2107037;28;20027;-81
2022/04/05 03:26:31;;;;;;;11.10;8.95;;;;;;;1.10;99.38;92511.53;2098609;28;20020;-83
2022/04/05 03:27:32;;;;;;;14.07;9.32;;;;;;;1.37;97.04;92514.66;2090203;28;20029;-82
2022/04/05 03:28:34;;;;;;;11.18;9.07;;;;;;;1.14;99.30;92505.19;2096550;28;20020;-81
2022/04/05 03:29:35;;;;;;;12.88;9.23;;;;;;;1.14;97.84;92512.31;2097736;28;20024;-82
2022/04/05 03:30:36;;;;;;;11.20;8.50;;;;;;;1.21;96.25;92510.47;2081974;28;20053;-81
2022/04/05 03:31:36;;;;;;;11.50;9.25;;;;;;;1.20;98.34;92511.59;2082088;28;20036;-82
2022/04/05 03:32:37;;;;;;;13.20;9.60;;;;;;;1.13;98.52;92508.16;2090307;28;21896;-81
2022/04/05 03:33:38;;;;;;;15.43;9.05;;;;;;;1.33;96.22;92508.63;2106771;28;20370;-82
2022/04/05 03:34:40;;;;;;;17.02;9.65;;;;;;;1.43;95.07;92507.88;2106959;28;20058;-83
2022/04/05 03:35:41;;;;;;;14.18;9.05;;;;;;;1.17;97.13;92509.69;2098658;28;20388;-83
2022/04/05 03:36:51;;;;;;;10.75;8.45;;;;;;;1.50;92.67;92506.03;2089698;28;20460;-82
2022/04/05 03:37:52;;;;;;;;;;;;;;;1.33;95.96;92509.38;2088639;28;20498;-83
2022/04/05 03:38:53;;;;;;;10.32;8.30;;;;;;;1.45;94.36;92503.78;2091079;28;19935;-83
2022/04/05 03:39:54;;;;;;;12.32;8.82;;;;;;;1.19;98.30;92501.44;2097561;28;20420;-82
2022/04/05 03:40:55;;;;;;;10.50;8.30;;;;;;;1.37;96.67;92499.59;2082948;28;20507;-81
2022/04/05 03:41:57;;;;;;;11.23;8.50;;;;;;;1.56;92.21;92495.13;2081871;28;20049;-81
2022/04/05 03:42:58;;;;;;;12.23;8.35;;;;;;;1.60;94.15;92501.16;2090328;28;20056;-82
2022/04/05 03:43:59;;;;;;;11.15;8.35;;;;;;;1.57;95.13;92494.75;2103756;28;20028;-82
2022/04/05 03:45:00;;;;;;;11.50;8.02;;;;;;;1.35;95.64;92501.84;2090116;28;20049;-83
2022/04/05 03:46:01;;;;;;;11.27;7.70;;;;;;;1.46;93.65;92501.88;2081840;28;20017;-82
2022/04/05 03:47:02;;;;;;;12.15;8.27;;;;;;;1.41;95.09;92508.28;2090246;28;20033;-82
2022/04/05 03:48:04;;;;;;;11.57;8.02;;;;;;;1.30;96.75;92493.56;2089873;28;20047;-82
2022/04/05 03:49:05;;;;;;;11.38;8.38;;;;;;;1.40;96.69;92501.47;2089945;28;20060;-82
2022/04/05 03:50:06;;;;;;;14.02;8.10;;;;;;;1.38;95.21;92505.63;2081994;28;20029;-83
2022/04/05 03:51:09;;;;;;;13.63;8.52;;;;;;;1.29;98.08;92500.72;2088632;28;20021;-83
2022/04/05 03:52:10;;;;;;;10.00;8.15;;;;;;;1.31;97.64;92508.22;2098482;28;20027;-80
2022/04/05 03:53:11;;;;;;;12.18;8.02;;;;;;;1.18;98.45;92511.19;2101603;28;20065;-81
2022/04/05 03:54:12;;;;;;;10.95;8.23;;;;;;;1.29;97.36;92502.59;2086759;28;20072;-83
2022/04/05 03:55:13;;;;;;;17.33;9.32;;;;;;;1.46;94.97;92501.88;2081859;28;20156;-82
2022/04/05 03:56:14;;;;;;;14.73;8.15;;;;;;;1.79;90.96;92505.31;2093638;28;20066;-82
2022/04/05 03:57:17;;;;;;;12.25;8.68;;;;;;;1.55;94.05;92502.28;2094490;28;20030;-81
2022/04/05 03:58:18;;;;;;;12.07;7.93;;;;;;;1.47;93.40;92506.78;2082340;28;20040;-81
2022/04/05 03:59:19;;;;;;;10.55;8.23;;;;;;;1.34;97.10;92513.50;2094212;28;20020;-81
2022/04/05 04:00:20;;;;;;;12.18;7.97;;;;;;;1.24;97.96;92506.34;2102041;28;20480;-83
2022/04/05 04:01:22;;;;;;;9.85;7.60;;;;;;;1.20;96.51;92506.31;2098190;28;20024;-81
2022/04/05 04:02:23;;;;;;;16.48;8.23;;;;;;;1.20;98.15;92502.94;2098102;28;20024;-82
2022/04/05 04:03:25;;;;;;;12.07;7.65;;;;;;;1.17;97.49;92507.06;2089836;28;20082;-83
2022/04/05 04:04:26;;;;;;;12.10;8.25;;;;;;;1.21;97.37;92507.06;2081992;28;20116;-81
2022/04/05 04:05:27;;;;;;;13.77;7.78;;;;;;;1.14;99.65;92509.66;2090006;28;20028;-83
2022/04/05 04:06:28;;;;;;;9.55;8.00;;;;;;;1.44;94.41;92512.78;2095557;28;20025;-82
2022/04/05 04:07:29;;;;;;;10.82;8.35;;;;;;;1.29;98.42;92507.84;2094124;28;20591;-83
2022/04/05 04:08:30;;;;;;;10.38;8.05;;;;;;;1.19;98.17;92509.34;2081917;28;20049;-81
2022/04/05 04:09:31;;;;;;;11.43;7.55;;;;;;;1.26;97.28;92512.72;2090050;28;20112;-82
2022/04/05 04:10:33;;;;;;;9.05;7.20;;;;;;;1.28;97.00;92504.47;2089927;28;20393;-81
2022/04/05 04:11:34;;;;;;;9.77;8.20;;;;;;;1.19;98.85;92507.44;2098187;28;20534;-80
2022/04/05 04:12:35;;;;;;;11.02;8.23;;;;;;;1.51;95.96;92504.91;2097849;28;20020;-82
2022/04/05 04:13:36;;;;;;;9.73;8.27;;;;;;;1.43;94.94;92507.88;2081592;28;20047;-82
2022/04/05 04:14:37;;;;;;;11.20;8.35;;;;;;;1.29;99.36;92500.72;2081610;28;20490;-82
2022/04/05 04:15:38;;;;;;;10.40;8.07;;;;;;;1.42;98.06;92504.50;2090393;28;20551;-81
2022/04/05 04:16:39;;;;;;;13.65;8.85;;;;;;;1.36;99.39;92499.97;2089832;28;20029;-82
2022/04/05 04:17:40;;;;;;;11.95;8.90;;;;;;;1.24;100.00;92506.34;2089897;28;20462;-82
2022/04/05 04:18:42;;;;;;;10.05;8.50;;;;;;;1.20;100.00;92500.31;2089938;28;20021;-81
2022/04/05 04:19:44;;;;;;;12.68;8.20;;;;;;;1.21;100.00;92493.91;2081976;28;20131;-81
2022/04/05 04:20:45;;;;;;;11.85;8.13;;;;;;;1.15;100.00;92505.94;2082056;28;20173;-83
2022/04/05 04:21:47;;;;;;;10.98;8.18;;;;;;;1.04;100.00;92502.50;2081688;28;20034;-81
2022/04/05 04:22:51;;;;;;;11.50;8.32;;;;;;;1.08;100.00;92504.03;2082275;28;20025;-81
2022/04/05 04:23:52;;;;;;;10.18;7.68;;;;;;;1.03;100.00;92496.47;2097919;28;20035;-81
2022/04/05 04:24:57;;;;;;;9.40;7.82;;;;;;;1.10;100.00;92501.78;2089986;28;20059;-81
2022/04/05 04:25:59;;;;;;;11.07;8.13;;;;;;;1.10;100.00;92501.78;2082456;28;20681;-82
2022/04/05 04:27:00;;;;;;;11.70;7.60;;;;;;;0.96;100.00;92497.19;2089988;28;20421;-82
2022/04/05 04:28:02;;;;;;;11.20;7.90;;;;;;;1.23;100.00;92496.94;2089963;28;20033;-82
2022/04/05 04:29:04;;;;;;;10.10;8.07;;;;;;;1.08;100.00;92495.38;2090209;28;20059;-83
2022/04/05 04:30:09;;;;;;;14.30;9.25;;;;;;;0.92;100.00;92490.41;2090929;28;20083;-82
2022/04/05 04:31:13;;;;;;;12.27;8.38;;;;;;;0.83;100.00;92493.38;2086905;28;20031;-83
2022/04/05 04:32:14;;;;;;;11.00;8.10;;;;;;;0.88;100.00;92493.06;2086269;28;20777;-82
2022/04/05 04:33:15;;;;;;;10.68;7.47;;;;;;;1.13;100.00;92490.50;2098065;28;20059;-81
2022/04/05 04:34:17;;;;;;;11.50;8.38;;;;;;;1.05;100.00;92491.59;2101788;28;20027;-81
2022/04/05 04:35:18;;;;;;;9.90;7.65;;;;;;;0.85;100.00;92482.50;2091729;28;20662;-81
2022/04/05 04:36:19;;;;;;;11.13;7.18;;;;;;;1.00;100.00;92490.06;2085551;28;20024;-82
2022/04/05 04:37:20;;;;;;;11.45;8.50;;;;;;;1.04;100.00;92484.06;2078697;28;20528;-81
2022/04/05 04:38:28;;;;;;;10.15;7.78;;;;;;;0.95;100.00;92490.44;2088316;28;20029;-82
2022/04/05 04:39:29;;;;;;;11.68;7.55;;;;;;;1.12;100.00;92480.34;2095136;28;20051;-82
2022/04/05 04:40:30;;;;;;;11.52;8.25;;;;;;;1.13;100.00;92490.50;2087251;28;20029;-80
2022/04/05 04:41:31;;;;;;;12.40;8.25;;;;;;;1.13;100.00;92487.13;2078789;28;20029;-81
2022/04/05 04:42:33;;;;;;;10.50;7.97;;;;;;;1.07;100.00;92493.88;2078736;28;20053;-81
2022/04/05 04:43:34;;;;;;;11.32;7.85;;;;;;;1.13;100.00;92487.88;2088645;28;20025;-82
2022/04/05 04:44:35;;;;;;;15.20;10.20;;;;;;;1.02;100.00;92494.22;2095002;28;20115;-82
2022/04/05 04:45:36;;;;;;;13.02;8.93;;;;;;;1.00;100.00;92492.72;2088425;28;20029;-81
2022/04/05 04:46:37;;;;;;;13.30;9.18;;;;;;;0.89;100.00;92488.53;2088011;28;20033;-82
2022/04/05 04:47:38;;;;;;;10.68;7.50;;;;;;;0.84;100.00;92486.28;2088345;28;20108;-80
2022/04/05 04:48:39;;;;;;;11.88;7.50;;;;;;;0.96;100.00;92484.03;2088359;28;20020;-82
2022/04/05 04:49:40;;;;;;;9.88;7.82;;;;;;;0.94;100.00;92481.03;2080390;28;20108;-81
2022/04/05 04:50:41;;;;;;;11.23;7.78;;;;;;;0.87;100.00;92482.88;2087631;28;20397;-84